sensor_id;sensor_type;location;lat;lon;timestamp;pressure;altitude;pressure_sealevel;temperature;humidity
51496;BME280;37572;52.094;4.870;2022-08-07T00:01:29;102742.81;;;12.90;94.14
51496;BME280;37572;52.094;4.870;2022-08-07T00:03:54;102732.38;;;12.87;95.69
51496;BME280;37572;52.094;4.870;2022-08-07T00:06:19;102741.50;;;12.85;96.06
51496;BME280;37572;52.094;4.870;2022-08-07T00:08:46;102733.72;;;12.82;95.95
51496;BME280;37572;52.094;4.870;2022-08-07T00:11:11;102735.09;;;12.78;96.33
51496;BME280;37572;52.094;4.870;2022-08-07T00:13:37;102733.78;;;12.74;96.24
51496;BME280;37572;52.094;4.870;2022-08-07T00:16:03;102733.09;;;12.72;95.87
51496;BME280;37572;52.094;4.870;2022-08-07T00:18:31;102724.53;;;12.69;96.22
51496;BME280;37572;52.094;4.870;2022-08-07T00:21:00;102727.94;;;12.62;95.91
51496;BME280;37572;52.094;4.870;2022-08-07T00:23:26;102727.75;;;12.64;96.35
51496;BME280;37572;52.094;4.870;2022-08-07T00:25:51;102725.06;;;12.64;96.85
51496;BME280;37572;52.094;4.870;2022-08-07T00:28:17;102718.47;;;12.66;96.98
51496;BME280;37572;52.094;4.870;2022-08-07T00:30:42;102718.94;;;12.70;98.16
51496;BME280;37572;52.094;4.870;2022-08-07T00:33:08;102718.41;;;12.75;98.62
51496;BME280;37572;52.094;4.870;2022-08-07T00:35:33;102714.03;;;12.97;97.53
51496;BME280;37572;52.094;4.870;2022-08-07T00:37:59;102707.72;;;12.81;97.42
51496;BME280;37572;52.094;4.870;2022-08-07T00:40:26;102709.63;;;12.73;96.74
51496;BME280;37572;52.094;4.870;2022-08-07T00:42:52;102714.59;;;12.61;97.09
51496;BME280;37572;52.094;4.870;2022-08-07T00:45:17;102699.03;;;12.63;96.75
51496;BME280;37572;52.094;4.870;2022-08-07T00:47:42;102709.31;;;12.67;96.57
51496;BME280;37572;52.094;4.870;2022-08-07T00:50:08;102699.84;;;12.72;95.48
51496;BME280;37572;52.094;4.870;2022-08-07T00:52:33;102695.44;;;12.71;95.86
51496;BME280;37572;52.094;4.870;2022-08-07T00:54:59;102696.78;;;12.75;96.62
51496;BME280;37572;52.094;4.870;2022-08-07T00:57:25;102706.06;;;12.72;96.65
51496;BME280;37572;52.094;4.870;2022-08-07T00:59:51;102697.97;;;12.72;96.53
51496;BME280;37572;52.094;4.870;2022-08-07T01:02:16;102706.41;;;12.77;96.93
51496;BME280;37572;52.094;4.870;2022-08-07T01:04:41;102700.63;;;12.80;97.10
51496;BME280;37572;52.094;4.870;2022-08-07T01:07:07;102700.94;;;12.85;97.31
51496;BME280;37572;52.094;4.870;2022-08-07T01:09:33;102696.19;;;12.88;96.84
51496;BME280;37572;52.094;4.870;2022-08-07T01:11:59;102699.56;;;12.90;96.72
51496;BME280;37572;52.094;4.870;2022-08-07T01:14:25;102702.09;;;12.91;96.49
51496;BME280;37572;52.094;4.870;2022-08-07T01:16:51;102704.09;;;12.89;95.84
51496;BME280;37572;52.094;4.870;2022-08-07T01:19:19;102705.16;;;12.88;95.65
51496;BME280;37572;52.094;4.870;2022-08-07T01:21:46;102696.34;;;12.86;95.94
51496;BME280;37572;52.094;4.870;2022-08-07T01:24:12;102700.09;;;12.85;96.20
51496;BME280;37572;52.094;4.870;2022-08-07T01:26:38;102697.56;;;12.83;95.70
51496;BME280;37572;52.094;4.870;2022-08-07T01:29:04;102692.53;;;12.80;95.37
51496;BME280;37572;52.094;4.870;2022-08-07T01:31:30;102692.03;;;12.77;95.02
51496;BME280;37572;52.094;4.870;2022-08-07T01:33:59;102691.06;;;12.70;95.25
51496;BME280;37572;52.094;4.870;2022-08-07T01:36:26;102684.44;;;12.72;95.90
51496;BME280;37572;52.094;4.870;2022-08-07T01:38:52;102682.44;;;12.74;96.80
51496;BME280;37572;52.094;4.870;2022-08-07T01:41:19;102681.09;;;12.70;97.74
51496;BME280;37572;52.094;4.870;2022-08-07T01:43:45;102684.28;;;12.74;98.08
51496;BME280;37572;52.094;4.870;2022-08-07T01:46:10;102691.00;;;12.78;98.08
51496;BME280;37572;52.094;4.870;2022-08-07T01:48:36;102685.59;;;12.78;97.65
51496;BME280;37572;52.094;4.870;2022-08-07T01:51:06;102681.72;;;12.80;98.00
51496;BME280;37572;52.094;4.870;2022-08-07T01:53:33;102683.19;;;12.83;98.79
51496;BME280;37572;52.094;4.870;2022-08-07T01:56:03;102683.19;;;12.83;98.51
51496;BME280;37572;52.094;4.870;2022-08-07T01:58:37;102689.47;;;12.83;98.04
51496;BME280;37572;52.094;4.870;2022-08-07T02:01:08;102684.09;;;12.75;96.60
51496;BME280;37572;52.094;4.870;2022-08-07T02:03:40;102679.56;;;12.67;96.09
51496;BME280;37572;52.094;4.870;2022-08-07T02:06:10;102684.22;;;12.59;95.85
51496;BME280;37572;52.094;4.870;2022-08-07T02:08:38;102684.91;;;12.53;95.73
51496;BME280;37572;52.094;4.870;2022-08-07T02:11:06;102684.59;;;12.47;95.70
51496;BME280;37572;52.094;4.870;2022-08-07T02:13:33;102687.50;;;12.38;96.39
51496;BME280;37572;52.094;4.870;2022-08-07T02:16:02;102684.13;;;12.36;96.46
51496;BME280;37572;52.094;4.870;2022-08-07T02:18:30;102684.66;;;12.31;96.21
51496;BME280;37572;52.094;4.870;2022-08-07T02:20:58;102675.72;;;12.30;96.99
51496;BME280;37572;52.094;4.870;2022-08-07T02:23:25;102675.25;;;12.27;97.37
51496;BME280;37572;52.094;4.870;2022-08-07T02:25:52;102675.88;;;12.29;97.85
51496;BME280;37572;52.094;4.870;2022-08-07T02:28:19;102672.00;;;12.31;98.13
51496;BME280;37572;52.094;4.870;2022-08-07T02:30:46;102673.66;;;12.32;98.10
51496;BME280;37572;52.094;4.870;2022-08-07T02:33:13;102675.38;;;12.34;97.44
51496;BME280;37572;52.094;4.870;2022-08-07T02:35:40;102666.44;;;12.33;96.87
51496;BME280;37572;52.094;4.870;2022-08-07T02:38:06;102667.91;;;12.36;97.00
51496;BME280;37572;52.094;4.870;2022-08-07T02:40:33;102663.19;;;12.38;97.94
51496;BME280;37572;52.094;4.870;2022-08-07T02:42:59;102667.22;;;12.42;98.84
51496;BME280;37572;52.094;4.870;2022-08-07T02:45:27;102676.47;;;12.47;99.15
51496;BME280;37572;52.094;4.870;2022-08-07T02:47:54;102662.44;;;12.52;99.40
51496;BME280;37572;52.094;4.870;2022-08-07T02:50:20;102663.28;;;12.53;98.80
51496;BME280;37572;52.094;4.870;2022-08-07T02:52:51;102663.59;;;12.58;98.72
51496;BME280;37572;52.094;4.870;2022-08-07T02:55:20;102659.19;;;12.57;98.15
51496;BME280;37572;52.094;4.870;2022-08-07T02:57:47;102667.13;;;12.58;98.20
51496;BME280;37572;52.094;4.870;2022-08-07T03:00:14;102671.53;;;12.59;98.29
51496;BME280;37572;52.094;4.870;2022-08-07T03:02:41;102673.56;;;12.57;97.91
51496;BME280;37572;52.094;4.870;2022-08-07T03:05:09;102662.44;;;12.52;96.79
51496;BME280;37572;52.094;4.870;2022-08-07T03:07:36;102661.97;;;12.40;95.49
51496;BME280;37572;52.094;4.870;2022-08-07T03:10:02;102669.47;;;12.30;95.73
51496;BME280;37572;52.094;4.870;2022-08-07T03:12:29;102664.28;;;12.20;95.60
51496;BME280;37572;52.094;4.870;2022-08-07T03:14:55;102661.91;;;12.17;97.23
51496;BME280;37572;52.094;4.870;2022-08-07T03:17:21;102667.31;;;12.17;97.86
51496;BME280;37572;52.094;4.870;2022-08-07T03:19:49;102661.09;;;12.17;97.43
51496;BME280;37572;52.094;4.870;2022-08-07T03:22:15;102663.78;;;12.17;97.75
51496;BME280;37572;52.094;4.870;2022-08-07T03:24:41;102673.41;;;12.19;98.03
51496;BME280;37572;52.094;4.870;2022-08-07T03:27:07;102657.19;;;12.19;97.99
51496;BME280;37572;52.094;4.870;2022-08-07T03:29:37;102658.03;;;12.20;98.24
51496;BME280;37572;52.094;4.870;2022-08-07T03:32:06;102657.38;;;12.18;97.16
51496;BME280;37572;52.094;4.870;2022-08-07T03:34:32;102658.38;;;12.17;97.29
51496;BME280;37572;52.094;4.870;2022-08-07T03:36:59;102653.81;;;12.17;97.81
51496;BME280;37572;52.094;4.870;2022-08-07T03:39:26;102652.81;;;12.18;98.19
51496;BME280;37572;52.094;4.870;2022-08-07T03:41:53;102650.25;;;12.25;98.86
51496;BME280;37572;52.094;4.870;2022-08-07T03:44:19;102654.28;;;12.29;99.06
51496;BME280;37572;52.094;4.870;2022-08-07T03:46:45;102647.88;;;12.30;98.96
51496;BME280;37572;52.094;4.870;2022-08-07T03:49:10;102644.13;;;12.31;98.64
51496;BME280;37572;52.094;4.870;2022-08-07T03:51:36;102649.53;;;12.31;97.91
51496;BME280;37572;52.094;4.870;2022-08-07T03:54:02;102659.16;;;12.34;98.32
51496;BME280;37572;52.094;4.870;2022-08-07T03:56:29;102642.13;;;12.33;98.45
51496;BME280;37572;52.094;4.870;2022-08-07T03:58:55;102645.47;;;12.35;98.67
51496;BME280;37572;52.094;4.870;2022-08-07T04:01:22;102646.31;;;12.36;98.23
51496;BME280;37572;52.094;4.870;2022-08-07T04:03:48;102649.34;;;12.32;98.89
51496;BME280;37572;52.094;4.870;2022-08-07T04:06:14;102652.06;;;12.32;99.04
51496;BME280;37572;52.094;4.870;2022-08-07T04:08:39;102647.69;;;12.31;98.41
51496;BME280;37572;52.094;4.870;2022-08-07T04:11:07;102648.88;;;12.29;97.66
51496;BME280;37572;52.094;4.870;2022-08-07T04:13:33;102647.53;;;12.25;97.12
51496;BME280;37572;52.094;4.870;2022-08-07T04:15:59;102648.06;;;12.20;96.95
51496;BME280;37572;52.094;4.870;2022-08-07T04:18:24;102651.81;;;12.19;97.02
51496;BME280;37572;52.094;4.870;2022-08-07T04:20:50;102646.41;;;12.19;97.35
51496;BME280;37572;52.094;4.870;2022-08-07T04:23:15;102656.16;;;12.20;97.49
51496;BME280;37572;52.094;4.870;2022-08-07T04:25:42;102654.16;;;12.22;97.73
51496;BME280;37572;52.094;4.870;2022-08-07T04:28:08;102646.72;;;12.24;97.93
51496;BME280;37572;52.094;4.870;2022-08-07T04:30:37;102655.63;;;12.25;98.45
51496;BME280;37572;52.094;4.870;2022-08-07T04:33:08;102658.00;;;12.28;99.08
51496;BME280;37572;52.094;4.870;2022-08-07T04:35:35;102657.47;;;12.32;99.13
51496;BME280;37572;52.094;4.870;2022-08-07T04:38:08;102661.50;;;12.37;99.38
51496;BME280;37572;52.094;4.870;2022-08-07T04:40:37;102660.44;;;12.46;100.00
51496;BME280;37572;52.094;4.870;2022-08-07T04:43:03;102661.25;;;12.55;100.00
51496;BME280;37572;52.094;4.870;2022-08-07T04:45:36;102651.25;;;12.63;100.00
51496;BME280;37572;52.094;4.870;2022-08-07T04:48:07;102645.13;;;12.70;100.00
51496;BME280;37572;52.094;4.870;2022-08-07T04:50:48;102653.16;;;12.78;100.00
51496;BME280;37572;52.094;4.870;2022-08-07T04:53:38;102668.50;;;12.85;100.00
51496;BME280;37572;52.094;4.870;2022-08-07T04:56:46;102668.59;;;12.92;100.00
51496;BME280;37572;52.094;4.870;2022-08-07T04:59:17;102668.25;;;12.95;100.00
51496;BME280;37572;52.094;4.870;2022-08-07T05:01:58;102673.59;;;13.03;100.00
51496;BME280;37572;52.094;4.870;2022-08-07T05:04:39;102669.69;;;13.06;100.00
51496;BME280;37572;52.094;4.870;2022-08-07T05:07:13;102684.06;;;13.07;99.88
51496;BME280;37572;52.094;4.870;2022-08-07T05:12:20;102691.31;;;13.06;98.59
51496;BME280;37572;52.094;4.870;2022-08-07T05:14:46;102687.38;;;13.17;98.92
51496;BME280;37572;52.094;4.870;2022-08-07T05:17:18;102686.34;;;13.41;99.66
51496;BME280;37572;52.094;4.870;2022-08-07T05:19:47;102685.72;;;13.69;99.70
51496;BME280;37572;52.094;4.870;2022-08-07T05:22:15;102686.50;;;13.93;99.08
51496;BME280;37572;52.094;4.870;2022-08-07T05:24:42;102688.75;;;14.19;97.90
51496;BME280;37572;52.094;4.870;2022-08-07T05:27:12;102684.31;;;14.48;96.97
51496;BME280;37572;52.094;4.870;2022-08-07T05:29:38;102674.28;;;14.78;96.16
51496;BME280;37572;52.094;4.870;2022-08-07T05:32:06;102682.69;;;15.05;94.52
51496;BME280;37572;52.094;4.870;2022-08-07T05:34:34;102688.88;;;15.20;93.16
51496;BME280;37572;52.094;4.870;2022-08-07T05:37:00;102682.97;;;15.38;92.88
51496;BME280;37572;52.094;4.870;2022-08-07T05:39:26;102690.66;;;15.56;91.88
51496;BME280;37572;52.094;4.870;2022-08-07T05:41:51;102687.22;;;15.76;91.23
51496;BME280;37572;52.094;4.870;2022-08-07T05:44:18;102694.84;;;15.87;90.92
51496;BME280;37572;52.094;4.870;2022-08-07T05:46:46;102690.72;;;15.91;90.33
51496;BME280;37572;52.094;4.870;2022-08-07T05:49:13;102704.50;;;15.90;89.99
51496;BME280;37572;52.094;4.870;2022-08-07T05:51:41;102699.25;;;15.88;90.79
51496;BME280;37572;52.094;4.870;2022-08-07T05:54:07;102698.22;;;15.89;91.01
51496;BME280;37572;52.094;4.870;2022-08-07T05:56:33;102700.91;;;15.89;91.30
51496;BME280;37572;52.094;4.870;2022-08-07T05:59:00;102695.09;;;15.92;91.91
51496;BME280;37572;52.094;4.870;2022-08-07T06:01:27;102710.00;;;16.03;92.10
51496;BME280;37572;52.094;4.870;2022-08-07T06:03:54;102694.56;;;16.10;91.17
51496;BME280;37572;52.094;4.870;2022-08-07T06:06:22;102699.06;;;16.31;91.00
51496;BME280;37572;52.094;4.870;2022-08-07T06:08:48;102689.16;;;16.65;91.02
51496;BME280;37572;52.094;4.870;2022-08-07T06:11:14;102702.91;;;17.39;91.00
51496;BME280;37572;52.094;4.870;2022-08-07T06:13:39;102691.44;;;18.35;84.93
51496;BME280;37572;52.094;4.870;2022-08-07T06:16:08;102702.91;;;19.28;76.99
51496;BME280;37572;52.094;4.870;2022-08-07T06:18:34;102702.38;;;20.25;72.64
51496;BME280;37572;52.094;4.870;2022-08-07T06:21:00;102705.53;;;20.90;67.45
51496;BME280;37572;52.094;4.870;2022-08-07T06:23:27;102712.03;;;21.19;67.28
51496;BME280;37572;52.094;4.870;2022-08-07T06:25:53;102713.75;;;21.44;64.75
51496;BME280;37572;52.094;4.870;2022-08-07T06:28:18;102715.34;;;21.87;61.40
51496;BME280;37572;52.094;4.870;2022-08-07T06:30:44;102714.56;;;22.39;60.51
51496;BME280;37572;52.094;4.870;2022-08-07T06:33:09;102718.22;;;23.02;59.63
51496;BME280;37572;52.094;4.870;2022-08-07T06:35:35;102714.59;;;23.64;57.24
51496;BME280;37572;52.094;4.870;2022-08-07T06:38:02;102728.97;;;24.28;54.45
51496;BME280;37572;52.094;4.870;2022-08-07T06:40:29;102731.81;;;24.82;53.44
51496;BME280;37572;52.094;4.870;2022-08-07T06:42:55;102721.28;;;24.52;54.65
51496;BME280;37572;52.094;4.870;2022-08-07T06:45:22;102724.25;;;24.67;55.08
51496;BME280;37572;52.094;4.870;2022-08-07T06:47:48;102720.16;;;25.30;52.35
51496;BME280;37572;52.094;4.870;2022-08-07T06:50:14;102721.88;;;25.78;50.14
51496;BME280;37572;52.094;4.870;2022-08-07T06:52:42;102717.66;;;26.13;49.13
51496;BME280;37572;52.094;4.870;2022-08-07T06:55:13;102716.44;;;26.57;47.64
51496;BME280;37572;52.094;4.870;2022-08-07T06:57:40;102713.91;;;26.40;47.18
51496;BME280;37572;52.094;4.870;2022-08-07T07:00:08;102712.28;;;26.49;47.15
51496;BME280;37572;52.094;4.870;2022-08-07T07:02:35;102712.09;;;26.82;44.10
51496;BME280;37572;52.094;4.870;2022-08-07T07:05:01;102723.19;;;26.97;45.22
51496;BME280;37572;52.094;4.870;2022-08-07T07:07:27;102722.91;;;26.99;46.69
51496;BME280;37572;52.094;4.870;2022-08-07T07:09:52;102723.72;;;26.99;45.21
51496;BME280;37572;52.094;4.870;2022-08-07T07:17:28;102731.75;;;27.57;43.13
51496;BME280;37572;52.094;4.870;2022-08-07T07:19:58;102737.78;;;27.85;44.50
51496;BME280;37572;52.094;4.870;2022-08-07T07:22:24;102725.50;;;28.27;41.20
51496;BME280;37572;52.094;4.870;2022-08-07T07:24:51;102729.47;;;28.06;42.73
51496;BME280;37572;52.094;4.870;2022-08-07T07:27:20;102727.25;;;28.03;46.28
51496;BME280;37572;52.094;4.870;2022-08-07T07:29:48;102719.78;;;27.98;45.38
51496;BME280;37572;52.094;4.870;2022-08-07T07:32:15;102714.69;;;28.26;40.40
51496;BME280;37572;52.094;4.870;2022-08-07T07:34:46;102723.97;;;28.51;39.98
51496;BME280;37572;52.094;4.870;2022-08-07T07:37:13;102719.53;;;28.60;42.51
51496;BME280;37572;52.094;4.870;2022-08-07T07:39:41;102714.16;;;28.19;42.46
51496;BME280;37572;52.094;4.870;2022-08-07T07:42:09;102719.00;;;27.77;44.61
51496;BME280;37572;52.094;4.870;2022-08-07T07:44:38;102721.81;;;27.05;43.03
51496;BME280;37572;52.094;4.870;2022-08-07T07:47:06;102711.56;;;27.36;42.85
51496;BME280;37572;52.094;4.870;2022-08-07T07:49:34;102704.56;;;26.51;42.91
51496;BME280;37572;52.094;4.870;2022-08-07T07:52:02;102701.94;;;26.14;47.38
51496;BME280;37572;52.094;4.870;2022-08-07T07:54:29;102708.34;;;25.77;48.28
51496;BME280;37572;52.094;4.870;2022-08-07T07:56:56;102698.72;;;24.77;44.77
51496;BME280;37572;52.094;4.870;2022-08-07T07:59:23;102698.06;;;24.20;49.29
51496;BME280;37572;52.094;4.870;2022-08-07T08:01:50;102690.00;;;24.14;49.05
51496;BME280;37572;52.094;4.870;2022-08-07T08:04:17;102685.41;;;23.80;47.93
51496;BME280;37572;52.094;4.870;2022-08-07T08:06:44;102686.31;;;23.69;52.76
51496;BME280;37572;52.094;4.870;2022-08-07T08:09:11;102690.63;;;23.26;49.06
51496;BME280;37572;52.094;4.870;2022-08-07T08:11:38;102687.13;;;22.85;54.40
51496;BME280;37572;52.094;4.870;2022-08-07T08:14:04;102692.06;;;23.00;58.33
51496;BME280;37572;52.094;4.870;2022-08-07T08:16:41;102690.50;;;23.04;54.93
51496;BME280;37572;52.094;4.870;2022-08-07T08:19:11;102684.16;;;22.86;51.56
51496;BME280;37572;52.094;4.870;2022-08-07T08:21:40;102686.78;;;22.64;51.08
51496;BME280;37572;52.094;4.870;2022-08-07T08:24:27;102684.59;;;22.37;56.67
51496;BME280;37572;52.094;4.870;2022-08-07T08:27:12;102685.22;;;22.39;57.05
51496;BME280;37572;52.094;4.870;2022-08-07T08:29:43;102679.06;;;22.49;54.64
51496;BME280;37572;52.094;4.870;2022-08-07T08:32:12;102676.84;;;22.34;55.81
51496;BME280;37572;52.094;4.870;2022-08-07T08:34:40;102684.97;;;22.29;57.29
51496;BME280;37572;52.094;4.870;2022-08-07T08:37:07;102678.66;;;22.29;56.25
51496;BME280;37572;52.094;4.870;2022-08-07T08:39:35;102672.38;;;22.04;55.61
51496;BME280;37572;52.094;4.870;2022-08-07T08:42:20;102670.84;;;22.08;56.48
51496;BME280;37572;52.094;4.870;2022-08-07T08:44:53;102661.38;;;22.16;53.02
51496;BME280;37572;52.094;4.870;2022-08-07T08:47:49;102666.34;;;21.90;55.32
51496;BME280;37572;52.094;4.870;2022-08-07T08:50:20;102661.16;;;22.06;57.69
51496;BME280;37572;52.094;4.870;2022-08-07T08:53:04;102670.69;;;22.15;53.65
51496;BME280;37572;52.094;4.870;2022-08-07T08:55:47;102670.13;;;21.89;47.24
51496;BME280;37572;52.094;4.870;2022-08-07T08:58:30;102674.94;;;21.70;48.63
51496;BME280;37572;52.094;4.870;2022-08-07T09:01:04;102664.06;;;21.40;51.02
51496;BME280;37572;52.094;4.870;2022-08-07T09:03:42;102665.03;;;21.69;52.49
51496;BME280;37572;52.094;4.870;2022-08-07T09:08:55;102677.22;;;22.38;53.07
51496;BME280;37572;52.094;4.870;2022-08-07T09:14:13;102672.25;;;22.80;51.58
51496;BME280;37572;52.094;4.870;2022-08-07T09:16:53;102666.16;;;22.95;50.41
51496;BME280;37572;52.094;4.870;2022-08-07T09:19:29;102673.00;;;22.76;51.90
51496;BME280;37572;52.094;4.870;2022-08-07T09:22:13;102670.50;;;22.91;54.07
51496;BME280;37572;52.094;4.870;2022-08-07T09:27:27;102673.38;;;23.13;54.25
51496;BME280;37572;52.094;4.870;2022-08-07T09:29:59;102679.63;;;23.26;53.90
51496;BME280;37572;52.094;4.870;2022-08-07T09:35:37;102680.09;;;22.60;49.00
51496;BME280;37572;52.094;4.870;2022-08-07T09:46:03;102665.94;;;22.51;52.55
51496;BME280;37572;52.094;4.870;2022-08-07T09:54:32;102666.00;;;22.85;50.58
51496;BME280;37572;52.094;4.870;2022-08-07T10:02:55;102655.25;;;23.12;48.03
51496;BME280;37572;52.094;4.870;2022-08-07T10:11:07;102648.38;;;24.32;42.19
51496;BME280;37572;52.094;4.870;2022-08-07T10:32:23;102616.13;;;23.83;42.82
51496;BME280;37572;52.094;4.870;2022-08-07T10:38:10;102618.56;;;24.02;46.74
51496;BME280;37572;52.094;4.870;2022-08-07T10:40:49;102619.09;;;23.99;44.61
51496;BME280;37572;52.094;4.870;2022-08-07T10:43:21;102609.78;;;24.05;46.58
51496;BME280;37572;52.094;4.870;2022-08-07T10:45:53;102598.13;;;24.20;46.87
51496;BME280;37572;52.094;4.870;2022-08-07T10:51:52;102599.94;;;24.09;46.64
51496;BME280;37572;52.094;4.870;2022-08-07T10:54:31;102602.44;;;23.89;46.46
51496;BME280;37572;52.094;4.870;2022-08-07T10:57:09;102601.50;;;24.00;47.72
51496;BME280;37572;52.094;4.870;2022-08-07T11:02:55;102586.84;;;23.55;42.49
51496;BME280;37572;52.094;4.870;2022-08-07T11:05:33;102582.97;;;23.73;47.04
51496;BME280;37572;52.094;4.870;2022-08-07T11:10:42;102580.50;;;24.21;45.32
51496;BME280;37572;52.094;4.870;2022-08-07T11:13:24;102574.06;;;24.37;43.94
51496;BME280;37572;52.094;4.870;2022-08-07T11:15:54;102581.03;;;24.45;45.31
51496;BME280;37572;52.094;4.870;2022-08-07T11:18:55;102578.97;;;24.57;45.00
51496;BME280;37572;52.094;4.870;2022-08-07T11:21:23;102574.91;;;24.65;44.53
51496;BME280;37572;52.094;4.870;2022-08-07T11:27:01;102571.94;;;24.72;46.52
51496;BME280;37572;52.094;4.870;2022-08-07T11:32:15;102570.09;;;24.83;45.01
51496;BME280;37572;52.094;4.870;2022-08-07T11:42:32;102560.66;;;25.11;40.12
51496;BME280;37572;52.094;4.870;2022-08-07T11:45:15;102563.22;;;25.28;42.98
51496;BME280;37572;52.094;4.870;2022-08-07T11:50:48;102545.56;;;25.24;40.31
51496;BME280;37572;52.094;4.870;2022-08-07T11:53:33;102537.56;;;25.22;43.62
51496;BME280;37572;52.094;4.870;2022-08-07T12:08:21;102532.41;;;25.99;39.70
51496;BME280;37572;52.094;4.870;2022-08-07T12:10:51;102541.53;;;26.26;39.66
51496;BME280;37572;52.094;4.870;2022-08-07T12:13:28;102532.69;;;26.19;41.08
51496;BME280;37572;52.094;4.870;2022-08-07T12:16:04;102530.16;;;25.96;38.35
51496;BME280;37572;52.094;4.870;2022-08-07T12:18:47;102538.22;;;26.29;39.30
51496;BME280;37572;52.094;4.870;2022-08-07T12:25:33;102535.19;;;26.97;39.01
51496;BME280;37572;52.094;4.870;2022-08-07T12:27:55;102529.91;;;27.01;37.98
51496;BME280;37572;52.094;4.870;2022-08-07T12:30:25;102529.34;;;27.14;36.92
51496;BME280;37572;52.094;4.870;2022-08-07T12:33:00;102535.09;;;27.38;41.01
51496;BME280;37572;52.094;4.870;2022-08-07T12:35:28;102532.28;;;27.49;40.27
51496;BME280;37572;52.094;4.870;2022-08-07T12:37:55;102532.25;;;27.59;40.97
51496;BME280;37572;52.094;4.870;2022-08-07T12:40:24;102527.81;;;27.58;35.82
51496;BME280;37572;52.094;4.870;2022-08-07T12:42:51;102538.56;;;27.70;35.65
51496;BME280;37572;52.094;4.870;2022-08-07T12:45:25;102524.66;;;27.80;36.01
51496;BME280;37572;52.094;4.870;2022-08-07T12:47:54;102536.19;;;28.03;37.09
51496;BME280;37572;52.094;4.870;2022-08-07T12:50:49;102529.31;;;28.35;36.80
51496;BME280;37572;52.094;4.870;2022-08-07T12:58:40;102518.44;;;29.02;37.38
51496;BME280;37572;52.094;4.870;2022-08-07T13:01:28;102508.53;;;29.20;35.84
51496;BME280;37572;52.094;4.870;2022-08-07T13:20:51;102502.97;;;30.72;32.92
51496;BME280;37572;52.094;4.870;2022-08-07T13:23:28;102515.91;;;30.63;34.08
51496;BME280;37572;52.094;4.870;2022-08-07T13:26:31;102504.78;;;29.54;34.83
51496;BME280;37572;52.094;4.870;2022-08-07T13:29:05;102503.41;;;28.79;35.03
51496;BME280;37572;52.094;4.870;2022-08-07T13:31:57;102503.38;;;28.20;37.23
51496;BME280;37572;52.094;4.870;2022-08-07T13:34:27;102500.38;;;27.67;37.04
51496;BME280;37572;52.094;4.870;2022-08-07T13:37:03;102493.41;;;27.04;37.71
51496;BME280;37572;52.094;4.870;2022-08-07T13:42:16;102489.06;;;26.05;39.68
51496;BME280;37572;52.094;4.870;2022-08-07T13:44:43;102487.09;;;25.90;40.55
51496;BME280;37572;52.094;4.870;2022-08-07T13:47:13;102481.25;;;25.81;40.78
51496;BME280;37572;52.094;4.870;2022-08-07T13:49:45;102490.66;;;25.86;42.11
51496;BME280;37572;52.094;4.870;2022-08-07T13:52:12;102488.72;;;25.81;41.56
51496;BME280;37572;52.094;4.870;2022-08-07T13:54:39;102483.16;;;25.66;40.87
51496;BME280;37572;52.094;4.870;2022-08-07T13:57:08;102484.75;;;25.46;40.94
51496;BME280;37572;52.094;4.870;2022-08-07T13:59:42;102486.28;;;25.21;42.64
51496;BME280;37572;52.094;4.870;2022-08-07T14:02:11;102484.00;;;25.08;43.23
51496;BME280;37572;52.094;4.870;2022-08-07T14:04:50;102481.19;;;24.98;42.72
51496;BME280;37572;52.094;4.870;2022-08-07T14:07:21;102484.09;;;24.81;43.30
51496;BME280;37572;52.094;4.870;2022-08-07T14:09:51;102484.84;;;24.66;44.33
51496;BME280;37572;52.094;4.870;2022-08-07T14:17:45;102484.63;;;24.40;44.53
51496;BME280;37572;52.094;4.870;2022-08-07T14:20:20;102478.47;;;24.28;46.39
51496;BME280;37572;52.094;4.870;2022-08-07T14:23:00;102485.63;;;24.29;46.30
51496;BME280;37572;52.094;4.870;2022-08-07T14:25:29;102498.28;;;24.30;45.16
51496;BME280;37572;52.094;4.870;2022-08-07T14:27:56;102500.22;;;24.29;45.04
51496;BME280;37572;52.094;4.870;2022-08-07T14:30:22;102490.56;;;24.27;46.17
51496;BME280;37572;52.094;4.870;2022-08-07T14:32:57;102490.97;;;24.13;45.38
51496;BME280;37572;52.094;4.870;2022-08-07T14:35:27;102492.22;;;23.95;45.61
51496;BME280;37572;52.094;4.870;2022-08-07T14:37:55;102504.41;;;23.82;44.35
51496;BME280;37572;52.094;4.870;2022-08-07T14:40:23;102495.47;;;23.70;45.61
51496;BME280;37572;52.094;4.870;2022-08-07T14:43:15;102488.13;;;23.54;45.62
51496;BME280;37572;52.094;4.870;2022-08-07T14:45:48;102492.66;;;23.43;46.37
51496;BME280;37572;52.094;4.870;2022-08-07T14:48:19;102491.19;;;23.35;45.65
51496;BME280;37572;52.094;4.870;2022-08-07T14:50:47;102491.19;;;23.35;45.59
51496;BME280;37572;52.094;4.870;2022-08-07T14:53:15;102489.59;;;23.39;46.61
51496;BME280;37572;52.094;4.870;2022-08-07T14:55:42;102483.66;;;23.47;46.40
51496;BME280;37572;52.094;4.870;2022-08-07T14:58:13;102483.41;;;23.49;45.18
51496;BME280;37572;52.094;4.870;2022-08-07T15:00:42;102482.84;;;23.47;43.80
51496;BME280;37572;52.094;4.870;2022-08-07T15:03:09;102481.75;;;23.48;45.62
51496;BME280;37572;52.094;4.870;2022-08-07T15:05:37;102484.75;;;23.46;46.20
51496;BME280;37572;52.094;4.870;2022-08-07T15:08:05;102487.75;;;23.45;44.99
51496;BME280;37572;52.094;4.870;2022-08-07T15:10:34;102478.66;;;23.44;45.14
51496;BME280;37572;52.094;4.870;2022-08-07T15:13:04;102477.59;;;23.45;45.10
51496;BME280;37572;52.094;4.870;2022-08-07T15:15:50;102489.34;;;23.41;45.32
51496;BME280;37572;52.094;4.870;2022-08-07T15:18:20;102482.13;;;23.35;45.38
51496;BME280;37572;52.094;4.870;2022-08-07T15:20:48;102483.22;;;23.33;45.16
51496;BME280;37572;52.094;4.870;2022-08-07T15:23:21;102465.25;;;23.26;46.05